createdAt,value
2019-05-01T00:01:45.392Z,86.85
2019-05-01T00:04:18.263Z,86.63
2019-05-01T00:06:51.235Z,87.10
2019-05-01T00:09:24.531Z,87.03
2019-05-01T00:11:57.585Z,87.78
2019-05-01T00:14:30.770Z,88.24
2019-05-01T00:17:03.834Z,88.08
2019-05-01T00:19:36.717Z,87.97
2019-05-01T00:22:09.714Z,87.89
2019-05-01T00:24:42.590Z,87.94
2019-05-01T00:27:15.675Z,88.06
2019-05-01T00:29:48.570Z,88.07
2019-05-01T00:32:21.748Z,88.35
2019-05-01T00:34:54.910Z,88.37
2019-05-01T00:37:27.815Z,88.45
2019-05-01T00:40:01.471Z,88.64
2019-05-01T00:42:34.449Z,88.53
2019-05-01T00:45:07.527Z,88.46
2019-05-01T00:47:40.516Z,88.68
2019-05-01T00:50:13.582Z,88.13
2019-05-01T00:52:46.543Z,87.85
2019-05-01T00:55:19.498Z,88.08
2019-05-01T00:57:52.463Z,88.41
2019-05-01T01:00:25.363Z,87.97
2019-05-01T01:02:58.307Z,88.56
2019-05-01T01:05:31.280Z,88.70
2019-05-01T01:08:04.505Z,88.54
2019-05-01T01:10:38.034Z,88.60
2019-05-01T01:13:10.910Z,88.70
2019-05-01T01:15:43.837Z,87.46
2019-05-01T01:18:16.815Z,86.32
2019-05-01T01:20:49.791Z,86.32
2019-05-01T01:23:22.998Z,86.56
2019-05-01T01:25:55.994Z,87.01
2019-05-01T01:28:30.064Z,86.95
2019-05-01T01:31:05.115Z,87.04
2019-05-01T01:33:38.523Z,87.81
2019-05-01T01:36:22.453Z,87.81
2019-05-01T01:39:00.547Z,87.51
2019-05-01T01:41:34.643Z,87.90
2019-05-01T01:44:09.924Z,88.48
2019-05-01T01:47:01.223Z,88.35
2019-05-01T01:49:39.908Z,88.35
2019-05-01T01:52:18.738Z,88.44
2019-05-01T01:54:55.159Z,88.45
2019-05-01T01:57:43.912Z,88.45
2019-05-01T02:00:17.104Z,88.66
2019-05-01T02:02:51.405Z,87.29
2019-05-01T02:05:27.551Z,87.29
2019-05-01T02:08:02.248Z,88.02
2019-05-01T02:10:45.383Z,88.28
2019-05-01T02:13:20.872Z,87.41
2019-05-01T02:16:01.137Z,86.84
2019-05-01T02:18:35.441Z,87.19
2019-05-01T02:21:15.150Z,86.71
2019-05-01T02:23:49.038Z,86.55
2019-05-01T02:26:25.275Z,86.55
2019-05-01T02:29:01.530Z,86.58
2019-05-01T02:31:38.111Z,86.00
2019-05-01T02:34:16.713Z,85.88
2019-05-01T02:36:53.818Z,86.45
2019-05-01T02:39:32.474Z,86.38
2019-05-01T02:42:10.440Z,86.65
2019-05-01T02:44:49.362Z,86.65
2019-05-01T02:47:27.177Z,86.20
2019-05-01T02:50:32.467Z,86.20
2019-05-01T02:53:07.007Z,87.50
2019-05-01T02:55:52.818Z,87.77
2019-05-01T02:58:30.018Z,87.96
2019-05-01T03:01:14.284Z,87.88
2019-05-01T03:03:50.313Z,88.43
2019-05-01T03:06:27.871Z,88.16
2019-05-01T03:09:04.546Z,87.76
2019-05-01T03:11:41.982Z,87.75
2019-05-01T03:14:19.373Z,87.75
2019-05-01T03:16:56.356Z,88.60
2019-05-01T03:19:35.816Z,89.00
2019-05-01T03:22:11.938Z,89.08
2019-05-01T03:24:52.065Z,89.44
2019-05-01T03:27:27.911Z,89.74
2019-05-01T03:30:10.678Z,88.86
2019-05-01T03:32:49.321Z,88.86
2019-05-01T03:35:28.091Z,89.03
2019-05-01T03:38:16.756Z,88.63
2019-05-01T03:40:56.254Z,87.98
2019-05-01T03:43:34.058Z,87.80
2019-05-01T03:46:09.859Z,88.14
2019-05-01T03:48:50.235Z,88.10
2019-05-01T03:51:30.269Z,87.89
2019-05-01T03:54:10.216Z,88.00
2019-05-01T03:56:47.662Z,87.35
2019-05-01T03:59:24.708Z,87.58
2019-05-01T04:02:02.787Z,87.75
2019-05-01T04:04:42.052Z,87.45
2019-05-01T04:07:27.920Z,88.44
2019-05-01T04:10:06.922Z,88.44
2019-05-01T04:12:42.110Z,88.02
2019-05-01T04:15:18.875Z,87.73
2019-05-01T04:17:57.810Z,88.14
2019-05-01T04:20:39.998Z,88.14
2019-05-01T04:23:30.115Z,87.98
2019-05-01T04:26:11.227Z,88.11
2019-05-01T04:29:17.593Z,88.13
2019-05-01T04:31:47.295Z,88.45
2019-05-01T04:34:21.580Z,88.30
2019-05-01T04:36:56.701Z,88.26
2019-05-01T04:39:59.775Z,87.33
2019-05-01T04:42:42.118Z,87.39
2019-05-01T04:45:51.254Z,87.27
2019-05-01T04:48:29.061Z,87.06
2019-05-01T04:51:09.305Z,85.78
2019-05-01T04:53:59.067Z,85.78
2019-05-01T04:56:41.409Z,85.33
2019-05-01T04:59:24.828Z,85.44
2019-05-01T05:02:06.306Z,85.44
2019-05-01T05:04:53.842Z,84.92
2019-05-01T05:07:52.514Z,84.57
2019-05-01T05:10:52.983Z,84.85
2019-05-01T05:13:47.458Z,84.36
2019-05-01T05:16:25.561Z,83.93
2019-05-01T05:19:02.648Z,83.77
2019-05-01T05:22:29.366Z,84.42
2019-05-01T05:24:45.077Z,83.54
2019-05-01T05:27:28.250Z,82.79
2019-05-01T05:30:01.777Z,82.87
2019-05-01T05:32:36.997Z,82.67
2019-05-01T05:35:11.895Z,82.89
2019-05-01T05:37:47.964Z,82.26
2019-05-01T05:40:21.183Z,83.35
2019-05-01T05:42:54.239Z,82.69
2019-05-01T05:45:27.310Z,82.51
2019-05-01T05:48:00.485Z,82.06
2019-05-01T05:50:36.701Z,82.43
2019-05-01T05:53:12.889Z,82.23
2019-05-01T05:55:48.154Z,83.32
2019-05-01T05:58:23.646Z,83.71
2019-05-01T06:00:59.300Z,83.32
2019-05-01T06:03:35.164Z,83.32
2019-05-01T06:06:09.965Z,82.55
2019-05-01T06:08:45.836Z,81.93
2019-05-01T06:11:19.193Z,81.60
2019-05-01T06:13:57.007Z,81.48
2019-05-01T06:16:30.989Z,81.72
2019-05-01T06:19:04.152Z,80.81
2019-05-01T06:21:39.156Z,81.26
2019-05-01T06:24:12.602Z,81.47
2019-05-01T06:26:46.122Z,81.93
2019-05-01T06:29:19.516Z,81.85
2019-05-01T06:31:54.019Z,82.47
2019-05-01T06:34:28.674Z,82.07
2019-05-01T06:37:02.116Z,82.64
2019-05-01T06:39:36.084Z,82.01
2019-05-01T06:42:09.891Z,82.01
2019-05-01T06:44:44.785Z,81.95
2019-05-01T06:47:17.995Z,81.37
2019-05-01T06:49:52.175Z,81.95
2019-05-01T06:52:29.309Z,81.22
2019-05-01T06:55:00.875Z,79.66
2019-05-01T06:57:38.551Z,79.79
2019-05-01T07:00:10.202Z,80.21
2019-05-01T07:02:45.119Z,79.45
2019-05-01T07:05:20.739Z,80.69
2019-05-01T07:07:55.666Z,80.18
2019-05-01T07:10:42.528Z,80.18
2019-05-01T07:13:04.947Z,80.69
2019-05-01T07:15:38.279Z,80.69
2019-05-01T07:18:11.598Z,81.31
2019-05-01T07:20:47.399Z,81.26
2019-05-01T07:23:20.651Z,81.17
2019-05-01T07:25:54.223Z,78.69
2019-05-01T07:28:29.082Z,79.46
2019-05-01T07:31:04.871Z,79.59
2019-05-01T07:33:36.540Z,79.59
2019-05-01T07:36:15.548Z,80.33
2019-05-01T07:38:46.141Z,81.49
2019-05-01T07:41:19.539Z,81.49
2019-05-01T07:43:54.866Z,79.26
2019-05-01T07:46:27.700Z,79.79
2019-05-01T07:49:01.074Z,81.45
2019-05-01T07:51:55.076Z,80.96
2019-05-01T07:54:28.750Z,80.36
2019-05-01T07:57:16.424Z,79.15
2019-05-01T08:00:03.151Z,78.87
2019-05-01T08:02:35.805Z,78.63
2019-05-01T08:05:40.822Z,81.01
2019-05-01T08:08:16.586Z,81.01
2019-05-01T08:11:05.354Z,79.80
2019-05-01T08:13:39.821Z,79.54
2019-05-01T08:16:28.871Z,80.28
2019-05-01T08:19:05.890Z,77.76
2019-05-01T08:21:47.207Z,78.56
2019-05-01T08:24:22.886Z,78.27
2019-05-01T08:26:59.735Z,76.66
2019-05-01T08:29:46.181Z,76.66
2019-05-01T08:32:39.168Z,76.71
2019-05-01T08:35:23.565Z,75.20
2019-05-01T08:38:01.550Z,75.20
2019-05-01T08:40:37.693Z,74.98
2019-05-01T08:43:28.789Z,73.73
2019-05-01T08:46:04.949Z,74.75
2019-05-01T08:48:45.276Z,74.75
2019-05-01T08:51:18.567Z,75.15
2019-05-01T08:53:57.647Z,74.81
2019-05-01T08:56:31.217Z,73.69
2019-05-01T08:59:11.276Z,74.73
2019-05-01T09:01:50.609Z,74.48
2019-05-01T09:04:30.496Z,74.48
2019-05-01T09:07:14.597Z,76.13
2019-05-01T09:09:50.964Z,73.84
2019-05-01T09:12:28.160Z,73.84
2019-05-01T09:15:07.104Z,73.49
2019-05-01T09:17:43.986Z,72.16
2019-05-01T09:20:36.460Z,72.16
2019-05-01T09:23:18.290Z,73.00
2019-05-01T09:25:57.338Z,73.86
2019-05-01T09:28:39.797Z,74.78
2019-05-01T09:31:12.828Z,74.97
2019-05-01T09:33:47.868Z,73.28
2019-05-01T09:36:27.495Z,74.60
2019-05-01T09:39:07.221Z,74.60
2019-05-01T09:41:47.440Z,74.15
2019-05-01T09:44:25.208Z,73.76
2019-05-01T09:47:00.783Z,74.87
2019-05-01T09:49:40.104Z,73.23
2019-05-01T09:52:29.763Z,73.23
2019-05-01T09:55:13.208Z,73.80
2019-05-01T09:57:51.773Z,73.99
2019-05-01T10:00:30.057Z,74.63
2019-05-01T10:03:13.143Z,73.89
2019-05-01T10:05:49.335Z,71.89
2019-05-01T10:08:40.056Z,71.89
2019-05-01T10:11:19.646Z,72.19
2019-05-01T10:13:58.393Z,74.02
2019-05-01T10:16:43.490Z,73.00
2019-05-01T10:19:28.061Z,71.69
2019-05-01T10:22:10.104Z,71.69
2019-05-01T10:24:47.072Z,71.65
2019-05-01T10:27:30.862Z,71.66
2019-05-01T10:30:03.497Z,70.65
2019-05-01T10:32:36.374Z,70.76
2019-05-01T10:35:09.348Z,70.81
2019-05-01T10:37:42.304Z,72.00
2019-05-01T10:40:15.367Z,72.00
2019-05-01T10:42:48.335Z,71.43
2019-05-01T10:45:21.283Z,71.43
2019-05-01T10:47:54.243Z,72.11
2019-05-01T10:50:27.142Z,70.99
2019-05-01T10:53:00.209Z,71.58
2019-05-01T10:55:33.200Z,72.83
2019-05-01T10:58:06.168Z,72.83
2019-05-01T11:00:51.163Z,71.51
2019-05-01T11:03:24.088Z,71.32
2019-05-01T11:05:57.161Z,70.00
2019-05-01T11:09:03.386Z,70.00
2019-05-01T11:11:47.416Z,69.74
2019-05-01T11:14:40.983Z,71.71
2019-05-01T11:17:15.467Z,71.17
2019-05-01T11:20:03.201Z,71.17
2019-05-01T11:23:03.429Z,70.66
2019-05-01T11:25:40.352Z,70.91
2019-05-01T11:28:26.738Z,68.92
2019-05-01T11:31:06.354Z,68.92
2019-05-01T11:33:49.005Z,68.29
2019-05-01T11:36:31.956Z,69.11
2019-05-01T11:39:42.112Z,69.11
2019-05-01T11:42:16.103Z,69.59
2019-05-01T11:44:49.502Z,69.59
2019-05-01T11:47:22.969Z,69.19
2019-05-01T11:50:16.402Z,69.19
2019-05-01T11:53:02.988Z,68.77
2019-05-01T11:55:44.391Z,69.76
2019-05-01T11:58:26.883Z,69.76
2019-05-01T12:01:11.132Z,72.44
2019-05-01T12:03:44.751Z,72.47
2019-05-01T12:06:31.374Z,71.45
2019-05-01T12:09:11.473Z,70.28
2019-05-01T12:12:10.054Z,70.03
2019-05-01T12:15:01.709Z,71.09
2019-05-01T12:20:59.861Z,71.97
2019-05-01T12:23:39.531Z,72.46
2019-05-01T12:26:19.416Z,70.97
2019-05-01T12:29:07.225Z,71.90
2019-05-01T12:31:46.011Z,71.27
2019-05-01T12:34:26.303Z,71.73
2019-05-01T12:37:04.936Z,72.46
2019-05-01T12:39:44.154Z,72.78
2019-05-01T12:42:25.952Z,72.78
2019-05-01T12:45:01.410Z,71.63
2019-05-01T12:47:41.258Z,72.57
2019-05-01T12:50:18.271Z,72.57
2019-05-01T12:52:58.100Z,69.75
2019-05-01T12:55:52.081Z,71.52
2019-05-01T12:58:33.948Z,71.02
2019-05-01T13:01:10.413Z,71.02
2019-05-01T13:03:45.128Z,70.01
2019-05-01T13:06:24.314Z,71.12
2019-05-01T13:09:05.962Z,71.12
2019-05-01T13:11:39.672Z,71.43
2019-05-01T13:14:16.668Z,70.69
2019-05-01T13:16:50.167Z,70.69
2019-05-01T13:19:23.656Z,68.05
2019-05-01T13:21:57.473Z,68.05
2019-05-01T13:24:34.141Z,69.94
2019-05-01T13:27:07.310Z,69.94
2019-05-01T13:29:41.572Z,68.70
2019-05-01T13:32:16.149Z,68.82
2019-05-01T13:34:52.906Z,66.76
2019-05-01T13:37:28.405Z,66.09
2019-05-01T13:40:09.364Z,66.09
2019-05-01T13:42:57.748Z,66.12
2019-05-01T13:45:33.356Z,64.49
2019-05-01T13:48:09.807Z,64.49
2019-05-01T13:50:43.850Z,66.04
2019-05-01T13:53:18.553Z,66.04
2019-05-01T13:55:56.454Z,68.10
2019-05-01T13:58:30.744Z,65.92
2019-05-01T14:01:11.419Z,67.89
2019-05-01T14:03:53.018Z,67.89
2019-05-01T14:06:32.996Z,67.65
2019-05-01T14:09:11.994Z,66.27
2019-05-01T14:11:56.379Z,64.99
2019-05-01T14:14:35.261Z,64.99
2019-05-01T14:17:13.993Z,67.43
2019-05-01T14:19:57.521Z,67.43
2019-05-01T14:22:41.536Z,65.61
2019-05-01T14:25:26.559Z,64.63
2019-05-01T14:28:20.929Z,64.63
2019-05-01T14:30:58.319Z,67.21
2019-05-01T14:33:41.281Z,65.52
2019-05-01T14:36:32.504Z,65.47
2019-05-01T14:39:09.585Z,66.22
2019-05-01T14:41:46.866Z,68.46
2019-05-01T14:44:35.628Z,66.10
2019-05-01T14:47:07.108Z,66.10
2019-05-01T14:49:46.101Z,67.63
2019-05-01T14:52:24.007Z,67.63
2019-05-01T14:55:40.599Z,66.59
2019-05-01T14:58:26.381Z,67.88
2019-05-01T15:01:05.417Z,67.44
2019-05-01T15:03:40.328Z,66.55
2019-05-01T15:06:31.036Z,66.95
2019-05-01T15:09:14.197Z,69.69
2019-05-01T15:11:59.565Z,69.69
2019-05-01T15:14:43.632Z,66.72
2019-05-01T15:17:23.325Z,66.72
2019-05-01T15:20:04.112Z,65.05
2019-05-01T15:22:42.344Z,65.05
2019-05-01T15:25:20.338Z,65.24
2019-05-01T15:27:54.634Z,66.98
2019-05-01T15:30:32.312Z,67.44
2019-05-01T15:33:15.360Z,70.77
2019-05-01T15:35:58.730Z,70.77
2019-05-01T15:38:42.760Z,69.58
2019-05-01T15:41:23.522Z,66.86
2019-05-01T15:44:19.803Z,66.86
2019-05-01T15:47:00.593Z,68.26
2019-05-01T15:49:40.090Z,67.08
2019-05-01T15:52:20.956Z,70.16
2019-05-01T15:55:07.541Z,70.16
2019-05-01T15:57:48.201Z,69.39
2019-05-01T16:00:29.965Z,69.29
2019-05-01T16:03:13.502Z,69.72
2019-05-01T16:06:13.657Z,69.31
2019-05-01T16:08:48.598Z,69.53
2019-05-01T16:11:25.359Z,69.73
2019-05-01T16:14:07.285Z,68.26
2019-05-01T16:16:54.645Z,68.26
2019-05-01T16:19:35.393Z,71.62
2019-05-01T16:22:16.840Z,71.62
2019-05-01T16:25:01.015Z,72.38
2019-05-01T16:27:57.415Z,72.38
2019-05-01T16:30:33.026Z,72.74
2019-05-01T16:33:23.730Z,72.50
2019-05-01T16:36:15.454Z,71.96
2019-05-01T16:39:03.985Z,71.96
2019-05-01T16:41:49.013Z,72.74
2019-05-01T16:44:30.258Z,74.41
2019-05-01T16:47:12.094Z,75.48
2019-05-01T16:49:47.796Z,74.91
2019-05-01T16:52:30.641Z,75.29
2019-05-01T16:55:26.316Z,75.80
2019-05-01T16:58:22.662Z,75.80
2019-05-01T17:01:09.310Z,77.23
2019-05-01T17:03:50.429Z,76.88
2019-05-01T17:06:32.748Z,75.67
2019-05-01T17:09:13.192Z,75.67
2019-05-01T17:11:52.329Z,75.97
2019-05-01T17:14:34.309Z,75.97
2019-05-01T17:17:10.144Z,76.25
2019-05-01T17:19:52.627Z,76.25
2019-05-01T17:22:42.084Z,76.22
2019-05-01T17:25:19.137Z,75.46
2019-05-01T17:28:03.059Z,75.46
2019-05-01T17:30:57.531Z,77.05
2019-05-01T17:33:41.930Z,77.17
2019-05-01T17:36:17.602Z,77.17
2019-05-01T17:39:01.240Z,77.26
2019-05-01T17:42:02.065Z,76.83
2019-05-01T17:44:55.949Z,77.08
2019-05-01T17:47:41.152Z,76.62
2019-05-01T17:50:16.543Z,76.62
2019-05-01T17:52:58.977Z,77.13
2019-05-01T17:55:35.854Z,76.71
2019-05-01T17:58:22.132Z,76.78
2019-05-01T18:01:15.870Z,76.78
2019-05-01T18:03:38.590Z,77.95
2019-05-01T18:06:41.992Z,77.32
2019-05-01T18:09:13.507Z,77.28
2019-05-01T18:11:53.605Z,77.28
2019-05-01T18:14:43.318Z,77.69
2019-05-01T18:17:23.860Z,77.69
2019-05-01T18:20:04.822Z,78.37
2019-05-01T18:22:42.828Z,80.03
2019-05-01T18:25:22.964Z,79.43
2019-05-01T18:28:14.039Z,79.44
2019-05-01T18:31:04.069Z,79.44
2019-05-01T18:33:37.289Z,80.12
2019-05-01T18:36:14.847Z,80.38
2019-05-01T18:38:48.922Z,81.25
2019-05-01T18:41:33.493Z,81.25
2019-05-01T18:44:10.231Z,82.13
2019-05-01T18:46:47.832Z,82.13
2019-05-01T18:49:28.338Z,81.34
2019-05-01T18:52:15.979Z,81.44
2019-05-01T18:55:01.894Z,82.41
2019-05-01T18:57:33.922Z,82.79
2019-05-01T19:00:13.018Z,82.79
2019-05-01T19:02:53.645Z,83.11
2019-05-01T19:05:31.699Z,83.11
2019-05-01T19:08:16.306Z,83.16
2019-05-01T19:10:53.671Z,83.43
2019-05-01T19:13:29.212Z,83.43
2019-05-01T19:16:14.309Z,83.16
2019-05-01T19:18:50.450Z,82.81
2019-05-01T19:21:27.326Z,83.63
2019-05-01T19:24:05.949Z,83.51
2019-05-01T19:26:44.146Z,84.08
2019-05-01T19:29:26.626Z,84.08
2019-05-01T19:32:06.438Z,84.24
2019-05-01T19:34:57.875Z,85.23
2019-05-01T19:37:35.662Z,85.26
2019-05-01T19:40:17.467Z,85.26
2019-05-01T19:42:53.614Z,85.36
2019-05-01T19:45:28.237Z,85.56
2019-05-01T19:48:03.720Z,85.84
2019-05-01T19:50:39.862Z,85.84
2019-05-01T19:53:17.563Z,85.79
2019-05-01T19:56:01.624Z,85.95
2019-05-01T19:58:44.224Z,85.95
2019-05-01T20:01:29.793Z,86.11
2019-05-01T20:04:25.116Z,85.49
2019-05-01T20:07:10.482Z,85.49
2019-05-01T20:09:56.423Z,85.93
2019-05-01T20:12:22.773Z,84.80
2019-05-01T20:15:01.650Z,84.80
2019-05-01T20:17:38.581Z,85.28
2019-05-01T20:20:16.290Z,84.04
2019-05-01T20:22:53.090Z,84.04
2019-05-01T20:25:55.818Z,85.16
2019-05-01T20:28:47.056Z,85.10
2019-05-01T20:31:50.730Z,84.67
2019-05-01T20:34:39.029Z,84.67
2019-05-01T20:37:24.089Z,84.79
2019-05-01T20:40:16.732Z,85.27
2019-05-01T20:43:10.824Z,85.11
2019-05-01T20:45:59.564Z,85.11
2019-05-01T20:49:06.774Z,85.41
2019-05-01T20:51:51.833Z,85.72
2019-05-01T20:54:33.850Z,85.75
2019-05-01T20:57:13.051Z,85.83
2019-05-01T21:00:03.573Z,85.77
2019-05-01T21:02:44.577Z,86.00
2019-05-01T21:05:37.487Z,86.70
2019-05-01T21:08:40.556Z,87.20
2019-05-01T21:11:26.696Z,86.27
2019-05-01T21:14:18.133Z,86.27
2019-05-01T21:16:55.937Z,86.47
2019-05-01T21:19:37.212Z,86.47
2019-05-01T21:22:16.435Z,86.59
2019-05-01T21:25:13.782Z,86.55
2019-05-01T21:27:57.236Z,86.55
2019-05-01T21:30:38.771Z,86.54
2019-05-01T21:33:16.590Z,87.11
2019-05-01T21:35:54.055Z,87.31
2019-05-01T21:38:40.871Z,87.96
2019-05-01T21:41:18.473Z,87.96
2019-05-01T21:43:54.311Z,88.22
2019-05-01T21:46:28.139Z,87.80
2019-05-01T21:49:24.809Z,88.18
2019-05-01T21:52:03.590Z,88.75
2019-05-01T21:54:37.432Z,88.75
2019-05-01T21:57:17.453Z,89.06
2019-05-01T21:59:55.282Z,89.03
2019-05-01T22:02:53.306Z,89.03
2019-05-01T22:05:34.678Z,89.38
2019-05-01T22:08:24.042Z,89.71
2019-05-01T22:11:22.556Z,89.71
2019-05-01T22:14:09.401Z,89.78
2019-05-01T22:16:53.151Z,89.77
2019-05-01T22:19:29.849Z,90.30
2019-05-01T22:22:13.421Z,90.30
2019-05-01T22:25:05.905Z,90.48
2019-05-01T22:30:56.998Z,90.30
2019-05-01T22:33:34.569Z,90.29
2019-05-01T22:36:10.663Z,90.57
2019-05-01T22:39:17.071Z,90.74
2019-05-01T22:42:09.090Z,90.75
2019-05-01T22:47:53.181Z,90.46
2019-05-01T22:50:42.614Z,90.56
2019-05-01T22:53:16.588Z,90.56
2019-05-01T22:56:04.233Z,90.17
2019-05-01T22:58:41.844Z,90.14
2019-05-01T23:01:18.080Z,90.25
2019-05-01T23:03:50.385Z,90.33
2019-05-01T23:06:23.346Z,90.25
2019-05-01T23:08:56.368Z,90.33
2019-05-01T23:11:29.643Z,90.57
2019-05-01T23:14:02.580Z,89.87
2019-05-01T23:16:35.452Z,89.87
2019-05-01T23:19:08.321Z,90.54
2019-05-01T23:21:41.272Z,90.17
2019-05-01T23:24:14.130Z,90.17
2019-05-01T23:26:48.041Z,89.68
2019-05-01T23:29:21.843Z,89.78
2019-05-01T23:31:54.726Z,89.78
2019-05-01T23:34:28.036Z,90.26
2019-05-01T23:37:00.892Z,89.95
2019-05-01T23:39:39.733Z,89.48
2019-05-01T23:42:08.762Z,89.48
2019-05-01T23:44:43.022Z,90.07
2019-05-01T23:47:16.311Z,88.75
2019-05-01T23:49:52.664Z,88.38
2019-05-01T23:52:24.218Z,88.38
2019-05-01T23:54:57.084Z,89.26
2019-05-01T23:57:29.974Z,89.26
